KFLG/FLG METAR and TAF weather

Enter ICAO airport designator
Station Type Date Time Source
KFLG METAR 2021/09/24 04:57 UTC NOAA

KFLG 240457Z AUTO 00000KT 10SM OVC110 13/03 A3027 RMK AO2 SLP152 T01330028


Station Type Date Time Source
KFLG Decoded METAR 2021/09/24 04:57 UTC NOAA

FLAGSTAFF PULLIAM AIRPORT, AZ, United States (KFLG) 35-08N 111-40W 2134M
Sep 24, 2021 - 12:57 AM EDT / 2021.09.24 0457 UTC
Wind: Calm:0
Visibility: 10 mile(s):0
Sky conditions: overcast
Temperature: 55.9 F (13.3 C)
Dew Point: 37.0 F (2.8 C)
Relative Humidity: 48%
Pressure (altimeter): 30.27 in. Hg (1025 hPa)
ob: KFLG 240457Z AUTO 00000KT 10SM OVC110 13/03 A3027 RMK AO2 SLP152 T01330028
cycle: 5

Station Type Date Time Source
KFLG TAF 2021/09/23 18:45 UTC NOAA

TAF KFLG 231741Z 2318/2418 24009G15KT P6SM SCT100 SCT250
FM240100 VRB05KT P6SM SCT080
FM240400 VRB04KT P6SM BKN070 PROB30 2406/2410 5SM -SHRA OVC040
FM241000 VRB03KT P6SM SCT080 BKN200

Example: see airport list